sensor_id;sensor_type;location;lat;lon;timestamp;P1;durP1;ratioP1;P2;durP2;ratioP2
10343;SDS011;5217;43.960;10.954;2022-11-04T00:02:10;4.20;;;2.92;;
10343;SDS011;5217;43.960;10.954;2022-11-04T00:04:39;3.88;;;2.47;;
10343;SDS011;5217;43.960;10.954;2022-11-04T00:07:07;3.97;;;2.63;;
10343;SDS011;5217;43.960;10.954;2022-11-04T00:09:49;6.18;;;2.60;;
10343;SDS011;5217;43.960;10.954;2022-11-04T00:12:17;5.40;;;2.40;;
10343;SDS011;5217;43.960;10.954;2022-11-04T00:14:52;4.85;;;2.72;;
10343;SDS011;5217;43.960;10.954;2022-11-04T00:17:40;2.80;;;2.25;;
10343;SDS011;5217;43.960;10.954;2022-11-04T00:20:08;6.50;;;2.90;;
10343;SDS011;5217;43.960;10.954;2022-11-04T00:22:54;5.88;;;2.72;;
10343;SDS011;5217;43.960;10.954;2022-11-04T00:25:40;5.45;;;2.70;;
10343;SDS011;5217;43.960;10.954;2022-11-04T00:28:26;3.90;;;2.65;;
10343;SDS011;5217;43.960;10.954;2022-11-04T00:31:11;3.95;;;2.63;;
10343;SDS011;5217;43.960;10.954;2022-11-04T00:33:57;3.35;;;2.35;;
10343;SDS011;5217;43.960;10.954;2022-11-04T00:36:25;4.30;;;2.50;;
10343;SDS011;5217;43.960;10.954;2022-11-04T00:38:54;3.08;;;2.42;;
10343;SDS011;5217;43.960;10.954;2022-11-04T00:41:22;4.32;;;2.75;;
10343;SDS011;5217;43.960;10.954;2022-11-04T00:43:54;4.03;;;2.50;;
10343;SDS011;5217;43.960;10.954;2022-11-04T00:46:25;3.58;;;2.35;;
10343;SDS011;5217;43.960;10.954;2022-11-04T00:48:54;3.92;;;2.67;;
10343;SDS011;5217;43.960;10.954;2022-11-04T00:51:23;5.43;;;2.75;;
10343;SDS011;5217;43.960;10.954;2022-11-04T00:53:51;5.93;;;2.88;;
10343;SDS011;5217;43.960;10.954;2022-11-04T00:56:20;4.68;;;3.00;;
10343;SDS011;5217;43.960;10.954;2022-11-04T00:58:49;4.80;;;2.70;;
10343;SDS011;5217;43.960;10.954;2022-11-04T01:01:17;4.22;;;2.70;;
10343;SDS011;5217;43.960;10.954;2022-11-04T01:03:48;4.72;;;2.35;;
10343;SDS011;5217;43.960;10.954;2022-11-04T01:06:19;3.60;;;2.45;;
10343;SDS011;5217;43.960;10.954;2022-11-04T01:08:48;3.58;;;2.42;;
10343;SDS011;5217;43.960;10.954;2022-11-04T01:11:22;4.72;;;2.50;;
10343;SDS011;5217;43.960;10.954;2022-11-04T01:13:50;5.07;;;2.80;;
10343;SDS011;5217;43.960;10.954;2022-11-04T01:16:19;5.35;;;2.95;;
10343;SDS011;5217;43.960;10.954;2022-11-04T01:18:49;5.20;;;2.78;;
10343;SDS011;5217;43.960;10.954;2022-11-04T01:21:17;5.10;;;2.90;;
10343;SDS011;5217;43.960;10.954;2022-11-04T01:23:46;4.47;;;2.83;;
10343;SDS011;5217;43.960;10.954;2022-11-04T01:26:15;4.50;;;2.67;;
10343;SDS011;5217;43.960;10.954;2022-11-04T01:28:45;3.92;;;2.60;;
10343;SDS011;5217;43.960;10.954;2022-11-04T01:31:14;4.30;;;2.63;;
10343;SDS011;5217;43.960;10.954;2022-11-04T01:33:44;4.07;;;2.97;;
10343;SDS011;5217;43.960;10.954;2022-11-04T01:36:14;4.47;;;2.67;;
10343;SDS011;5217;43.960;10.954;2022-11-04T01:38:42;4.45;;;2.67;;
10343;SDS011;5217;43.960;10.954;2022-11-04T01:41:15;3.38;;;2.70;;
10343;SDS011;5217;43.960;10.954;2022-11-04T01:43:47;4.80;;;2.75;;
10343;SDS011;5217;43.960;10.954;2022-11-04T01:46:28;3.08;;;2.50;;
10343;SDS011;5217;43.960;10.954;2022-11-04T01:49:05;4.90;;;2.88;;
10343;SDS011;5217;43.960;10.954;2022-11-04T01:51:45;5.63;;;3.40;;
10343;SDS011;5217;43.960;10.954;2022-11-04T01:54:16;7.05;;;3.40;;
10343;SDS011;5217;43.960;10.954;2022-11-04T01:56:45;5.80;;;2.88;;
10343;SDS011;5217;43.960;10.954;2022-11-04T01:59:16;5.30;;;2.85;;
10343;SDS011;5217;43.960;10.954;2022-11-04T02:01:49;6.85;;;2.95;;
10343;SDS011;5217;43.960;10.954;2022-11-04T02:04:17;5.78;;;2.97;;
10343;SDS011;5217;43.960;10.954;2022-11-04T02:06:54;4.85;;;2.90;;
10343;SDS011;5217;43.960;10.954;2022-11-04T02:09:25;5.50;;;2.85;;
10343;SDS011;5217;43.960;10.954;2022-11-04T02:11:56;5.22;;;2.80;;
10343;SDS011;5217;43.960;10.954;2022-11-04T02:14:42;4.70;;;2.83;;
10343;SDS011;5217;43.960;10.954;2022-11-04T02:17:16;6.38;;;2.78;;
10343;SDS011;5217;43.960;10.954;2022-11-04T02:23:21;4.15;;;2.92;;
10343;SDS011;5217;43.960;10.954;2022-11-04T02:29:36;4.60;;;3.28;;
10343;SDS011;5217;43.960;10.954;2022-11-04T02:32:17;4.05;;;2.65;;
10343;SDS011;5217;43.960;10.954;2022-11-04T02:34:53;4.38;;;2.83;;
10343;SDS011;5217;43.960;10.954;2022-11-04T02:37:31;3.38;;;2.47;;
10343;SDS011;5217;43.960;10.954;2022-11-04T02:40:12;3.20;;;2.20;;
10343;SDS011;5217;43.960;10.954;2022-11-04T02:42:52;6.90;;;2.47;;
10343;SDS011;5217;43.960;10.954;2022-11-04T02:45:29;4.95;;;2.58;;
10343;SDS011;5217;43.960;10.954;2022-11-04T02:48:06;4.68;;;2.50;;
10343;SDS011;5217;43.960;10.954;2022-11-04T02:50:39;5.03;;;2.90;;
10343;SDS011;5217;43.960;10.954;2022-11-04T02:53:13;4.32;;;2.63;;
10343;SDS011;5217;43.960;10.954;2022-11-04T02:55:48;4.72;;;3.03;;
10343;SDS011;5217;43.960;10.954;2022-11-04T02:58:20;4.25;;;2.58;;
10343;SDS011;5217;43.960;10.954;2022-11-04T03:00:53;4.18;;;2.65;;
10343;SDS011;5217;43.960;10.954;2022-11-04T03:03:24;6.07;;;2.80;;
10343;SDS011;5217;43.960;10.954;2022-11-04T03:05:55;4.78;;;2.90;;
10343;SDS011;5217;43.960;10.954;2022-11-04T03:08:26;4.70;;;3.05;;
10343;SDS011;5217;43.960;10.954;2022-11-04T03:10:59;5.32;;;2.90;;
10343;SDS011;5217;43.960;10.954;2022-11-04T03:13:32;7.32;;;3.13;;
10343;SDS011;5217;43.960;10.954;2022-11-04T03:16:06;5.72;;;2.70;;
10343;SDS011;5217;43.960;10.954;2022-11-04T03:18:41;6.10;;;3.13;;
10343;SDS011;5217;43.960;10.954;2022-11-04T03:21:24;7.32;;;3.33;;
10343;SDS011;5217;43.960;10.954;2022-11-04T03:23:54;5.07;;;2.78;;
10343;SDS011;5217;43.960;10.954;2022-11-04T03:26:25;5.10;;;2.85;;
10343;SDS011;5217;43.960;10.954;2022-11-04T03:28:59;6.90;;;3.00;;
10343;SDS011;5217;43.960;10.954;2022-11-04T03:31:43;7.53;;;3.13;;
10343;SDS011;5217;43.960;10.954;2022-11-04T03:34:16;5.28;;;3.00;;
10343;SDS011;5217;43.960;10.954;2022-11-04T03:36:44;5.47;;;3.08;;
10343;SDS011;5217;43.960;10.954;2022-11-04T03:39:13;6.45;;;3.47;;
10343;SDS011;5217;43.960;10.954;2022-11-04T03:41:42;6.00;;;3.15;;
10343;SDS011;5217;43.960;10.954;2022-11-04T03:44:14;5.78;;;2.92;;
10343;SDS011;5217;43.960;10.954;2022-11-04T03:46:44;6.05;;;2.90;;
10343;SDS011;5217;43.960;10.954;2022-11-04T03:49:13;7.88;;;3.45;;
10343;SDS011;5217;43.960;10.954;2022-11-04T03:51:43;8.27;;;3.30;;
10343;SDS011;5217;43.960;10.954;2022-11-04T03:54:11;8.07;;;3.22;;
10343;SDS011;5217;43.960;10.954;2022-11-04T03:56:49;6.55;;;2.95;;
10343;SDS011;5217;43.960;10.954;2022-11-04T03:59:39;5.03;;;3.08;;
10343;SDS011;5217;43.960;10.954;2022-11-04T04:02:25;4.53;;;3.10;;
10343;SDS011;5217;43.960;10.954;2022-11-04T04:04:59;8.02;;;3.05;;
10343;SDS011;5217;43.960;10.954;2022-11-04T04:07:33;6.93;;;3.10;;
10343;SDS011;5217;43.960;10.954;2022-11-04T04:10:07;6.28;;;3.03;;
10343;SDS011;5217;43.960;10.954;2022-11-04T04:12:55;6.60;;;3.50;;
10343;SDS011;5217;43.960;10.954;2022-11-04T04:15:28;8.50;;;3.65;;
10343;SDS011;5217;43.960;10.954;2022-11-04T04:18:04;8.10;;;3.58;;
10343;SDS011;5217;43.960;10.954;2022-11-04T04:20:36;8.55;;;3.50;;
10343;SDS011;5217;43.960;10.954;2022-11-04T04:23:08;5.43;;;3.35;;
10343;SDS011;5217;43.960;10.954;2022-11-04T04:25:54;7.97;;;3.53;;
10343;SDS011;5217;43.960;10.954;2022-11-04T04:28:43;9.32;;;3.78;;
10343;SDS011;5217;43.960;10.954;2022-11-04T04:31:13;7.00;;;3.70;;
10343;SDS011;5217;43.960;10.954;2022-11-04T04:34:06;8.93;;;3.42;;
10343;SDS011;5217;43.960;10.954;2022-11-04T04:36:37;7.88;;;3.30;;
10343;SDS011;5217;43.960;10.954;2022-11-04T04:39:11;5.13;;;3.08;;
10343;SDS011;5217;43.960;10.954;2022-11-04T04:42:01;6.35;;;3.38;;
10343;SDS011;5217;43.960;10.954;2022-11-04T04:44:47;6.03;;;3.53;;
10343;SDS011;5217;43.960;10.954;2022-11-04T04:47:31;6.93;;;3.15;;
10343;SDS011;5217;43.960;10.954;2022-11-04T04:50:05;5.47;;;3.00;;
10343;SDS011;5217;43.960;10.954;2022-11-04T04:52:36;5.60;;;3.10;;
10343;SDS011;5217;43.960;10.954;2022-11-04T04:55:06;5.00;;;3.00;;
10343;SDS011;5217;43.960;10.954;2022-11-04T04:57:35;5.10;;;3.33;;
10343;SDS011;5217;43.960;10.954;2022-11-04T05:00:05;7.78;;;3.33;;
10343;SDS011;5217;43.960;10.954;2022-11-04T05:02:35;5.45;;;3.10;;
10343;SDS011;5217;43.960;10.954;2022-11-04T05:05:06;10.20;;;3.90;;
10343;SDS011;5217;43.960;10.954;2022-11-04T05:07:35;8.68;;;3.53;;
10343;SDS011;5217;43.960;10.954;2022-11-04T05:10:04;7.82;;;3.40;;
10343;SDS011;5217;43.960;10.954;2022-11-04T05:12:33;7.10;;;3.88;;
10343;SDS011;5217;43.960;10.954;2022-11-04T05:15:19;8.20;;;3.75;;
10343;SDS011;5217;43.960;10.954;2022-11-04T05:17:47;7.65;;;3.55;;
10343;SDS011;5217;43.960;10.954;2022-11-04T05:20:21;8.98;;;3.70;;
10343;SDS011;5217;43.960;10.954;2022-11-04T05:22:50;7.40;;;4.00;;
10343;SDS011;5217;43.960;10.954;2022-11-04T05:25:20;7.75;;;3.80;;
10343;SDS011;5217;43.960;10.954;2022-11-04T05:27:48;5.82;;;3.80;;
10343;SDS011;5217;43.960;10.954;2022-11-04T05:30:17;6.72;;;3.95;;
10343;SDS011;5217;43.960;10.954;2022-11-04T05:32:45;7.45;;;3.58;;
10343;SDS011;5217;43.960;10.954;2022-11-04T05:35:14;7.53;;;4.10;;
10343;SDS011;5217;43.960;10.954;2022-11-04T05:37:44;5.63;;;3.30;;
10343;SDS011;5217;43.960;10.954;2022-11-04T05:40:12;6.32;;;3.70;;
10343;SDS011;5217;43.960;10.954;2022-11-04T05:42:40;7.15;;;3.88;;
10343;SDS011;5217;43.960;10.954;2022-11-04T05:45:09;7.22;;;3.83;;
10343;SDS011;5217;43.960;10.954;2022-11-04T05:47:38;7.85;;;3.97;;
10343;SDS011;5217;43.960;10.954;2022-11-04T05:50:06;6.20;;;3.45;;
10343;SDS011;5217;43.960;10.954;2022-11-04T05:52:35;8.15;;;4.20;;
10343;SDS011;5217;43.960;10.954;2022-11-04T05:55:05;7.00;;;3.85;;
10343;SDS011;5217;43.960;10.954;2022-11-04T05:57:34;4.28;;;3.15;;
10343;SDS011;5217;43.960;10.954;2022-11-04T06:00:04;7.65;;;3.95;;
10343;SDS011;5217;43.960;10.954;2022-11-04T06:02:33;7.50;;;3.88;;
10343;SDS011;5217;43.960;10.954;2022-11-04T06:05:01;8.30;;;4.32;;
10343;SDS011;5217;43.960;10.954;2022-11-04T06:07:31;8.35;;;4.15;;
10343;SDS011;5217;43.960;10.954;2022-11-04T06:09:59;7.60;;;4.15;;
10343;SDS011;5217;43.960;10.954;2022-11-04T06:12:29;8.77;;;4.15;;
10343;SDS011;5217;43.960;10.954;2022-11-04T06:14:57;10.20;;;4.50;;
10343;SDS011;5217;43.960;10.954;2022-11-04T06:17:26;11.45;;;4.38;;
10343;SDS011;5217;43.960;10.954;2022-11-04T06:19:54;9.43;;;4.13;;
10343;SDS011;5217;43.960;10.954;2022-11-04T06:22:22;9.23;;;4.22;;
10343;SDS011;5217;43.960;10.954;2022-11-04T06:24:51;7.53;;;3.50;;
10343;SDS011;5217;43.960;10.954;2022-11-04T06:27:19;8.95;;;4.05;;
10343;SDS011;5217;43.960;10.954;2022-11-04T06:29:49;6.97;;;3.97;;
10343;SDS011;5217;43.960;10.954;2022-11-04T06:32:19;8.75;;;3.92;;
10343;SDS011;5217;43.960;10.954;2022-11-04T06:34:47;8.95;;;4.32;;
10343;SDS011;5217;43.960;10.954;2022-11-04T06:37:15;7.70;;;3.60;;
10343;SDS011;5217;43.960;10.954;2022-11-04T06:39:44;7.57;;;4.10;;
10343;SDS011;5217;43.960;10.954;2022-11-04T06:42:12;8.80;;;4.10;;
10343;SDS011;5217;43.960;10.954;2022-11-04T06:44:41;9.18;;;3.40;;
10343;SDS011;5217;43.960;10.954;2022-11-04T06:47:10;7.35;;;3.47;;
10343;SDS011;5217;43.960;10.954;2022-11-04T06:49:39;5.82;;;3.13;;
10343;SDS011;5217;43.960;10.954;2022-11-04T06:52:07;6.22;;;3.03;;
10343;SDS011;5217;43.960;10.954;2022-11-04T06:54:36;5.60;;;3.15;;
10343;SDS011;5217;43.960;10.954;2022-11-04T06:57:04;6.70;;;3.03;;
10343;SDS011;5217;43.960;10.954;2022-11-04T06:59:33;6.20;;;2.88;;
10343;SDS011;5217;43.960;10.954;2022-11-04T07:02:01;6.68;;;2.83;;
10343;SDS011;5217;43.960;10.954;2022-11-04T07:04:31;7.97;;;3.15;;
10343;SDS011;5217;43.960;10.954;2022-11-04T07:06:59;6.47;;;2.80;;
10343;SDS011;5217;43.960;10.954;2022-11-04T07:09:28;5.97;;;2.95;;
10343;SDS011;5217;43.960;10.954;2022-11-04T07:11:56;6.88;;;3.00;;
10343;SDS011;5217;43.960;10.954;2022-11-04T07:14:25;7.70;;;3.15;;
10343;SDS011;5217;43.960;10.954;2022-11-04T07:16:53;7.35;;;2.75;;
10343;SDS011;5217;43.960;10.954;2022-11-04T07:19:22;8.18;;;2.78;;
10343;SDS011;5217;43.960;10.954;2022-11-04T07:21:51;6.07;;;2.72;;
10343;SDS011;5217;43.960;10.954;2022-11-04T07:24:20;7.13;;;3.58;;
10343;SDS011;5217;43.960;10.954;2022-11-04T07:26:48;8.38;;;3.55;;
10343;SDS011;5217;43.960;10.954;2022-11-04T07:29:17;6.57;;;3.00;;
10343;SDS011;5217;43.960;10.954;2022-11-04T07:31:46;6.90;;;2.83;;
10343;SDS011;5217;43.960;10.954;2022-11-04T07:34:14;6.72;;;2.90;;
10343;SDS011;5217;43.960;10.954;2022-11-04T07:36:42;5.70;;;2.42;;
10343;SDS011;5217;43.960;10.954;2022-11-04T07:39:12;6.93;;;2.70;;
10343;SDS011;5217;43.960;10.954;2022-11-04T07:41:40;7.20;;;2.63;;
10343;SDS011;5217;43.960;10.954;2022-11-04T07:44:09;5.85;;;2.65;;
10343;SDS011;5217;43.960;10.954;2022-11-04T07:46:38;6.57;;;2.47;;
10343;SDS011;5217;43.960;10.954;2022-11-04T07:49:06;8.38;;;3.20;;
10343;SDS011;5217;43.960;10.954;2022-11-04T07:51:35;5.40;;;2.53;;
10343;SDS011;5217;43.960;10.954;2022-11-04T07:54:03;6.57;;;2.63;;
10343;SDS011;5217;43.960;10.954;2022-11-04T07:56:35;6.05;;;2.58;;
10343;SDS011;5217;43.960;10.954;2022-11-04T07:59:04;6.63;;;2.80;;
10343;SDS011;5217;43.960;10.954;2022-11-04T08:01:42;4.85;;;2.70;;
10343;SDS011;5217;43.960;10.954;2022-11-04T08:04:11;4.60;;;2.38;;
10343;SDS011;5217;43.960;10.954;2022-11-04T08:06:39;5.82;;;2.50;;
10343;SDS011;5217;43.960;10.954;2022-11-04T08:09:08;5.45;;;2.72;;
10343;SDS011;5217;43.960;10.954;2022-11-04T08:11:38;4.97;;;2.30;;
10343;SDS011;5217;43.960;10.954;2022-11-04T08:14:06;5.18;;;2.60;;
10343;SDS011;5217;43.960;10.954;2022-11-04T08:16:35;5.78;;;2.55;;
10343;SDS011;5217;43.960;10.954;2022-11-04T08:19:04;6.78;;;2.67;;
10343;SDS011;5217;43.960;10.954;2022-11-04T08:21:32;4.57;;;2.30;;
10343;SDS011;5217;43.960;10.954;2022-11-04T08:24:01;7.55;;;2.78;;
10343;SDS011;5217;43.960;10.954;2022-11-04T08:26:30;4.80;;;2.45;;
10343;SDS011;5217;43.960;10.954;2022-11-04T08:29:00;7.50;;;2.30;;
10343;SDS011;5217;43.960;10.954;2022-11-04T08:31:33;6.68;;;2.40;;
10343;SDS011;5217;43.960;10.954;2022-11-04T08:34:02;5.80;;;2.47;;
10343;SDS011;5217;43.960;10.954;2022-11-04T08:36:34;7.78;;;2.60;;
10343;SDS011;5217;43.960;10.954;2022-11-04T08:39:06;6.45;;;2.38;;
10343;SDS011;5217;43.960;10.954;2022-11-04T08:41:37;7.47;;;2.70;;
10343;SDS011;5217;43.960;10.954;2022-11-04T08:44:09;6.80;;;2.53;;
10343;SDS011;5217;43.960;10.954;2022-11-04T08:46:40;7.80;;;2.58;;
10343;SDS011;5217;43.960;10.954;2022-11-04T08:49:09;7.65;;;3.33;;
10343;SDS011;5217;43.960;10.954;2022-11-04T08:51:45;6.55;;;2.55;;
10343;SDS011;5217;43.960;10.954;2022-11-04T08:54:15;8.77;;;2.60;;
10343;SDS011;5217;43.960;10.954;2022-11-04T08:56:43;7.07;;;2.78;;
10343;SDS011;5217;43.960;10.954;2022-11-04T08:59:13;5.97;;;2.58;;
10343;SDS011;5217;43.960;10.954;2022-11-04T09:01:42;8.95;;;2.95;;
10343;SDS011;5217;43.960;10.954;2022-11-04T09:04:12;4.50;;;2.20;;
10343;SDS011;5217;43.960;10.954;2022-11-04T09:06:41;6.97;;;2.60;;
10343;SDS011;5217;43.960;10.954;2022-11-04T09:09:12;7.25;;;2.40;;
10343;SDS011;5217;43.960;10.954;2022-11-04T09:11:42;8.43;;;2.25;;
10343;SDS011;5217;43.960;10.954;2022-11-04T09:14:13;5.53;;;2.40;;
10343;SDS011;5217;43.960;10.954;2022-11-04T09:16:43;5.47;;;2.28;;
10343;SDS011;5217;43.960;10.954;2022-11-04T09:19:11;8.45;;;2.75;;
10343;SDS011;5217;43.960;10.954;2022-11-04T09:21:40;12.10;;;2.80;;
10343;SDS011;5217;43.960;10.954;2022-11-04T09:24:08;8.75;;;2.33;;
10343;SDS011;5217;43.960;10.954;2022-11-04T09:26:37;5.90;;;2.30;;
10343;SDS011;5217;43.960;10.954;2022-11-04T09:29:06;8.15;;;2.67;;
10343;SDS011;5217;43.960;10.954;2022-11-04T09:31:36;7.00;;;2.30;;
10343;SDS011;5217;43.960;10.954;2022-11-04T09:34:05;6.07;;;2.15;;
10343;SDS011;5217;43.960;10.954;2022-11-04T09:36:34;7.28;;;2.50;;
10343;SDS011;5217;43.960;10.954;2022-11-04T09:39:02;6.78;;;2.33;;
10343;SDS011;5217;43.960;10.954;2022-11-04T09:41:41;17.75;;;2.33;;
10343;SDS011;5217;43.960;10.954;2022-11-04T09:44:38;8.63;;;2.67;;
10343;SDS011;5217;43.960;10.954;2022-11-04T09:47:35;6.95;;;2.53;;
10343;SDS011;5217;43.960;10.954;2022-11-04T09:50:09;9.63;;;2.47;;
10343;SDS011;5217;43.960;10.954;2022-11-04T09:52:46;5.80;;;2.13;;
10343;SDS011;5217;43.960;10.954;2022-11-04T09:55:19;5.90;;;2.42;;
10343;SDS011;5217;43.960;10.954;2022-11-04T09:57:53;5.80;;;2.20;;
10343;SDS011;5217;43.960;10.954;2022-11-04T10:00:23;7.40;;;2.38;;
10343;SDS011;5217;43.960;10.954;2022-11-04T10:02:58;6.57;;;2.70;;
10343;SDS011;5217;43.960;10.954;2022-11-04T10:05:42;6.30;;;2.08;;
10343;SDS011;5217;43.960;10.954;2022-11-04T10:08:30;7.55;;;2.13;;
10343;SDS011;5217;43.960;10.954;2022-11-04T10:11:11;5.07;;;1.92;;
10343;SDS011;5217;43.960;10.954;2022-11-04T10:13:52;7.63;;;2.30;;
10343;SDS011;5217;43.960;10.954;2022-11-04T10:16:49;7.60;;;2.38;;
10343;SDS011;5217;43.960;10.954;2022-11-04T10:19:37;6.68;;;2.15;;
10343;SDS011;5217;43.960;10.954;2022-11-04T10:22:19;5.82;;;2.22;;
10343;SDS011;5217;43.960;10.954;2022-11-04T10:24:56;5.97;;;2.20;;
10343;SDS011;5217;43.960;10.954;2022-11-04T10:27:33;5.57;;;2.22;;
10343;SDS011;5217;43.960;10.954;2022-11-04T10:30:05;4.10;;;1.77;;
10343;SDS011;5217;43.960;10.954;2022-11-04T10:32:43;3.63;;;1.70;;
10343;SDS011;5217;43.960;10.954;2022-11-04T10:35:27;7.70;;;2.15;;
10343;SDS011;5217;43.960;10.954;2022-11-04T10:38:08;5.10;;;2.05;;
10343;SDS011;5217;43.960;10.954;2022-11-04T10:40:47;8.27;;;2.40;;
10343;SDS011;5217;43.960;10.954;2022-11-04T10:43:18;8.55;;;2.20;;
10343;SDS011;5217;43.960;10.954;2022-11-04T10:45:56;7.57;;;2.38;;
10343;SDS011;5217;43.960;10.954;2022-11-04T10:48:37;4.00;;;1.92;;
10343;SDS011;5217;43.960;10.954;2022-11-04T10:51:13;8.18;;;2.30;;
10343;SDS011;5217;43.960;10.954;2022-11-04T10:53:47;5.68;;;2.10;;
10343;SDS011;5217;43.960;10.954;2022-11-04T10:56:21;8.88;;;2.17;;
10343;SDS011;5217;43.960;10.954;2022-11-04T10:58:59;8.18;;;2.25;;
10343;SDS011;5217;43.960;10.954;2022-11-04T11:01:47;5.75;;;1.83;;
10343;SDS011;5217;43.960;10.954;2022-11-04T11:04:24;6.32;;;2.25;;
10343;SDS011;5217;43.960;10.954;2022-11-04T11:06:56;7.03;;;2.05;;
10343;SDS011;5217;43.960;10.954;2022-11-04T11:09:26;5.50;;;1.90;;
10343;SDS011;5217;43.960;10.954;2022-11-04T11:11:57;4.47;;;1.92;;
10343;SDS011;5217;43.960;10.954;2022-11-04T11:14:31;6.70;;;2.08;;
10343;SDS011;5217;43.960;10.954;2022-11-04T11:17:16;6.15;;;2.13;;
10343;SDS011;5217;43.960;10.954;2022-11-04T11:19:52;7.60;;;2.28;;
10343;SDS011;5217;43.960;10.954;2022-11-04T11:22:32;7.70;;;2.53;;
10343;SDS011;5217;43.960;10.954;2022-11-04T11:25:12;6.28;;;2.00;;
10343;SDS011;5217;43.960;10.954;2022-11-04T11:27:48;7.45;;;2.35;;
10343;SDS011;5217;43.960;10.954;2022-11-04T11:30:18;7.85;;;2.42;;
10343;SDS011;5217;43.960;10.954;2022-11-04T11:32:52;6.78;;;2.25;;
10343;SDS011;5217;43.960;10.954;2022-11-04T11:35:22;5.53;;;2.20;;
10343;SDS011;5217;43.960;10.954;2022-11-04T11:37:57;9.73;;;2.40;;
10343;SDS011;5217;43.960;10.954;2022-11-04T11:40:30;6.00;;;2.40;;
10343;SDS011;5217;43.960;10.954;2022-11-04T11:43:24;5.78;;;2.08;;
10343;SDS011;5217;43.960;10.954;2022-11-04T11:45:55;5.78;;;1.92;;
10343;SDS011;5217;43.960;10.954;2022-11-04T11:48:26;4.45;;;2.03;;
10343;SDS011;5217;43.960;10.954;2022-11-04T11:50:56;6.07;;;2.40;;
10343;SDS011;5217;43.960;10.954;2022-11-04T11:53:27;5.10;;;2.00;;
10343;SDS011;5217;43.960;10.954;2022-11-04T11:56:02;7.03;;;2.15;;
10343;SDS011;5217;43.960;10.954;2022-11-04T11:58:40;4.35;;;1.92;;
10343;SDS011;5217;43.960;10.954;2022-11-04T12:01:33;6.55;;;2.15;;
10343;SDS011;5217;43.960;10.954;2022-11-04T12:04:06;8.13;;;2.33;;
10343;SDS011;5217;43.960;10.954;2022-11-04T12:07:00;5.38;;;1.80;;
10343;SDS011;5217;43.960;10.954;2022-11-04T12:09:58;6.95;;;2.03;;
10343;SDS011;5217;43.960;10.954;2022-11-04T12:12:51;6.20;;;2.30;;
10343;SDS011;5217;43.960;10.954;2022-11-04T12:15:36;4.93;;;2.15;;
10343;SDS011;5217;43.960;10.954;2022-11-04T12:18:24;7.72;;;2.20;;
10343;SDS011;5217;43.960;10.954;2022-11-04T12:21:05;5.32;;;2.10;;
10343;SDS011;5217;43.960;10.954;2022-11-04T12:23:41;5.57;;;2.05;;
10343;SDS011;5217;43.960;10.954;2022-11-04T12:26:22;5.95;;;2.10;;
10343;SDS011;5217;43.960;10.954;2022-11-04T12:29:07;7.85;;;2.42;;
10343;SDS011;5217;43.960;10.954;2022-11-04T12:31:50;5.43;;;2.20;;
10343;SDS011;5217;43.960;10.954;2022-11-04T12:34:28;7.68;;;2.25;;
10343;SDS011;5217;43.960;10.954;2022-11-04T12:37:10;5.57;;;2.25;;
10343;SDS011;5217;43.960;10.954;2022-11-04T12:42:42;5.32;;;1.80;;
10343;SDS011;5217;43.960;10.954;2022-11-04T12:45:23;6.78;;;2.28;;
10343;SDS011;5217;43.960;10.954;2022-11-04T12:48:01;5.95;;;2.13;;
10343;SDS011;5217;43.960;10.954;2022-11-04T12:50:39;6.63;;;2.33;;
10343;SDS011;5217;43.960;10.954;2022-11-04T12:53:28;7.00;;;2.50;;
10343;SDS011;5217;43.960;10.954;2022-11-04T12:56:16;6.25;;;2.47;;
10343;SDS011;5217;43.960;10.954;2022-11-04T12:59:01;6.03;;;2.35;;
10343;SDS011;5217;43.960;10.954;2022-11-04T13:01:43;3.95;;;2.10;;
10343;SDS011;5217;43.960;10.954;2022-11-04T13:04:16;4.93;;;2.35;;
10343;SDS011;5217;43.960;10.954;2022-11-04T13:06:47;6.05;;;1.90;;
10343;SDS011;5217;43.960;10.954;2022-11-04T13:09:22;5.47;;;2.10;;
10343;SDS011;5217;43.960;10.954;2022-11-04T13:11:56;8.68;;;2.30;;
10343;SDS011;5217;43.960;10.954;2022-11-04T13:14:32;5.20;;;2.10;;
10343;SDS011;5217;43.960;10.954;2022-11-04T13:17:09;4.97;;;2.03;;
10343;SDS011;5217;43.960;10.954;2022-11-04T13:19:42;5.90;;;1.92;;
10343;SDS011;5217;43.960;10.954;2022-11-04T13:22:15;4.95;;;2.00;;
10343;SDS011;5217;43.960;10.954;2022-11-04T13:24:48;6.40;;;2.28;;
10343;SDS011;5217;43.960;10.954;2022-11-04T13:27:20;6.35;;;2.40;;
10343;SDS011;5217;43.960;10.954;2022-11-04T13:29:55;4.35;;;1.90;;
10343;SDS011;5217;43.960;10.954;2022-11-04T13:32:32;4.13;;;1.83;;
10343;SDS011;5217;43.960;10.954;2022-11-04T13:35:08;6.18;;;2.05;;
10343;SDS011;5217;43.960;10.954;2022-11-04T13:37:48;7.10;;;1.90;;
10343;SDS011;5217;43.960;10.954;2022-11-04T13:40:25;7.78;;;1.85;;
10343;SDS011;5217;43.960;10.954;2022-11-04T13:43:04;5.85;;;2.22;;
10343;SDS011;5217;43.960;10.954;2022-11-04T13:46:03;5.15;;;2.08;;
10343;SDS011;5217;43.960;10.954;2022-11-04T13:48:49;8.15;;;2.30;;
10343;SDS011;5217;43.960;10.954;2022-11-04T13:51:21;4.95;;;2.00;;
10343;SDS011;5217;43.960;10.954;2022-11-04T13:53:50;6.20;;;2.15;;
10343;SDS011;5217;43.960;10.954;2022-11-04T13:56:30;3.85;;;1.80;;
10343;SDS011;5217;43.960;10.954;2022-11-04T13:59:15;5.30;;;2.30;;
10343;SDS011;5217;43.960;10.954;2022-11-04T14:01:47;6.57;;;2.20;;
10343;SDS011;5217;43.960;10.954;2022-11-04T14:04:38;6.78;;;2.40;;
10343;SDS011;5217;43.960;10.954;2022-11-04T14:07:08;5.70;;;2.40;;
10343;SDS011;5217;43.960;10.954;2022-11-04T14:12:27;7.47;;;2.40;;
10343;SDS011;5217;43.960;10.954;2022-11-04T14:15:24;6.70;;;2.25;;
10343;SDS011;5217;43.960;10.954;2022-11-04T14:18:27;6.45;;;2.17;;
10343;SDS011;5217;43.960;10.954;2022-11-04T14:21:02;8.63;;;2.35;;
10343;SDS011;5217;43.960;10.954;2022-11-04T14:23:33;7.25;;;2.67;;
10343;SDS011;5217;43.960;10.954;2022-11-04T14:26:04;9.65;;;2.28;;
10343;SDS011;5217;43.960;10.954;2022-11-04T14:28:35;6.63;;;2.40;;
10343;SDS011;5217;43.960;10.954;2022-11-04T14:31:04;7.13;;;2.50;;
10343;SDS011;5217;43.960;10.954;2022-11-04T14:33:52;7.78;;;2.47;;
10343;SDS011;5217;43.960;10.954;2022-11-04T14:36:27;9.10;;;2.42;;
10343;SDS011;5217;43.960;10.954;2022-11-04T14:39:03;5.70;;;2.28;;
10343;SDS011;5217;43.960;10.954;2022-11-04T14:41:51;5.00;;;1.95;;
10343;SDS011;5217;43.960;10.954;2022-11-04T14:44:29;6.07;;;2.10;;
10343;SDS011;5217;43.960;10.954;2022-11-04T14:47:00;8.57;;;2.20;;
10343;SDS011;5217;43.960;10.954;2022-11-04T14:49:41;6.75;;;2.83;;
10343;SDS011;5217;43.960;10.954;2022-11-04T14:52:18;7.90;;;2.47;;
10343;SDS011;5217;43.960;10.954;2022-11-04T14:54:54;4.70;;;2.35;;
10343;SDS011;5217;43.960;10.954;2022-11-04T14:57:27;10.85;;;2.65;;
10343;SDS011;5217;43.960;10.954;2022-11-04T14:59:56;6.85;;;2.28;;
10343;SDS011;5217;43.960;10.954;2022-11-04T15:02:27;10.57;;;2.78;;
10343;SDS011;5217;43.960;10.954;2022-11-04T15:04:59;6.13;;;2.20;;
10343;SDS011;5217;43.960;10.954;2022-11-04T15:07:32;6.93;;;2.30;;
10343;SDS011;5217;43.960;10.954;2022-11-04T15:10:15;7.75;;;2.65;;
10343;SDS011;5217;43.960;10.954;2022-11-04T15:12:46;11.30;;;4.72;;
10343;SDS011;5217;43.960;10.954;2022-11-04T15:18:12;11.80;;;5.70;;
10343;SDS011;5217;43.960;10.954;2022-11-04T15:20:44;11.20;;;4.93;;
10343;SDS011;5217;43.960;10.954;2022-11-04T15:23:16;9.45;;;4.43;;
10343;SDS011;5217;43.960;10.954;2022-11-04T15:25:49;8.18;;;3.50;;
10343;SDS011;5217;43.960;10.954;2022-11-04T15:28:18;9.50;;;3.78;;
10343;SDS011;5217;43.960;10.954;2022-11-04T15:30:56;12.27;;;5.50;;
10343;SDS011;5217;43.960;10.954;2022-11-04T15:33:26;10.85;;;5.13;;
10343;SDS011;5217;43.960;10.954;2022-11-04T15:35:57;9.57;;;3.55;;
10343;SDS011;5217;43.960;10.954;2022-11-04T15:38:27;8.98;;;3.38;;
10343;SDS011;5217;43.960;10.954;2022-11-04T15:40:56;13.43;;;3.33;;
10343;SDS011;5217;43.960;10.954;2022-11-04T15:43:47;7.47;;;2.60;;
10343;SDS011;5217;43.960;10.954;2022-11-04T15:46:16;7.65;;;3.03;;